• Join FlightAware (Why Join?)
  • Login
  • US Flag 
09:58PM EDT


 

Airport Tracker/Info


-or-


 

Live Flight TrackerFlight Track Log ✈ NGF90H ✈ 25-Apr-2013 ✈ KGAI - KGED

Flight Track Log - Related Links

Times and Time Zones

All times are in EDT time to prevent confusion due to time zone crossing. See the NGF90H flight status page for this flight to view local times or setup timezone preferences in your user account.

Time Position Orientation Groundspeed Altitude Reporting Facility
EDT Latitude Longitude Course Direction KTS MPH feet Rate Location/Type
11:32AM 39.2000 -77.1500 38° Northeast 89 102 2,300  Level Potomac TRACON
11:33AM 39.2167 -77.1333 38° Northeast 100 115 2,900 600 Climbing Potomac TRACON
11:34AM 39.2500 -77.1167 21° North 109 125 3,500 600 Climbing Potomac TRACON
11:35AM 39.2500 -77.0833 90° East 110 127 4,200 660 Climbing Potomac TRACON
11:36AM 39.2667 -77.0500 57° Northeast 105 121 4,900 360 Climbing Potomac TRACON
11:37AM 39.2833 -77.0167 57° Northeast 117 135 5,000  Climbing Potomac TRACON
11:38AM 39.2833 -76.9667 90° East 117 135 5,000  Level Potomac TRACON
11:39AM 39.3000 -76.9333 57° Northeast 118 136 5,000  Level Potomac TRACON
11:40AM 39.3000 -76.8833 90° East 119 137 5,000  Level Potomac TRACON
11:41AM 39.3000 -76.8500 90° East 122 140 5,000  Level Potomac TRACON
11:42AM 39.2833 -76.8000 113° Southeast 124 143 5,000  Level Potomac TRACON
11:43AM 39.2667 -76.7667 123° Southeast 122 140 5,000  Level Potomac TRACON
11:44AM 39.2500 -76.7333 123° Southeast 123 142 5,000  Level Potomac TRACON
11:45AM 39.2333 -76.7000 123° Southeast 123 142 5,000  Level Potomac TRACON
11:46AM 39.2167 -76.6500 113° Southeast 131 151 5,000  Level Potomac TRACON
11:47AM 39.2000 -76.6167 123° Southeast 128 147 5,000  Level Potomac TRACON
11:48AM 39.1833 -76.5667 113° Southeast 125 144 5,000  Level Potomac TRACON
11:49AM 39.1667 -76.5333 123° Southeast 128 147 5,000  Level Potomac TRACON
11:50AM 39.1500 -76.5000 123° Southeast 128 147 5,000  Level Potomac TRACON
11:51AM 39.1333 -76.4500 113° Southeast 127 146 5,000  Level Potomac TRACON
11:52AM 39.1167 -76.4167 123° Southeast 131 151 5,000  Level Potomac TRACON
11:53AM 39.1000 -76.3667 113° Southeast 128 147 5,000  Level Potomac TRACON
11:54AM 39.0833 -76.3333 123° Southeast 126 145 5,000  Level Potomac TRACON
11:55AM 39.0667 -76.2833 113° Southeast 125 144 5,000  Level Potomac TRACON
11:56AM 39.0500 -76.2500 123° Southeast 126 145 5,000  Level Potomac TRACON
11:57AM 39.0500 -76.2167 90° East 125 144 5,000  Level Potomac TRACON
11:58AM 39.0333 -76.1667 113° Southeast 123 142 5,000  Level Potomac TRACON
11:58AM 39.0167 -76.1333 123° Southeast 123 142 5,000  Level Potomac TRACON
12:00PM 38.9992 -76.0983 123° Southeast  Level FlightAware Approximate
12:07PM 38.8828 -75.8655 123° Southeast  Level FlightAware Approximate
12:08PM 38.8660 -75.8317 117° Southeast  Level FlightAware Approximate
12:09PM 38.8520 -75.7965 117° Southeast  Level FlightAware Approximate
12:10PM 38.8380 -75.7614 117° Southeast  Level FlightAware Approximate
12:11PM 38.8239 -75.7262 117° Southeast  Level FlightAware Approximate
12:12PM 38.8099 -75.6911 117° Southeast  Level FlightAware Approximate
12:13PM 38.7958 -75.6560 117° Southeast  Level FlightAware Approximate
12:14PM 38.7817 -75.6209 117° Southeast  Level FlightAware Approximate
12:15PM 38.7677 -75.5858 117° Southeast  Level FlightAware Approximate
12:16PM 38.7543 -75.5503 116° Southeast  Level FlightAware Approximate
12:17PM 38.7410 -75.5147 116° Southeast  Level FlightAware Approximate
12:18PM 38.7276 -75.4792 116° Southeast  Level FlightAware Approximate
12:19PM 38.7145 -75.4436 113° Southeast  Level FlightAware Approximate
12:20PM 38.7024 -75.4073 113° Southeast  Level FlightAware Approximate
12:21PM 38.6904 -75.3711 113° Southeast  Level FlightAware Approximate
12:22PM 38.6879 -75.3584 113° Southeast  Level Estimated
12:23PM 38.6879 -75.3584 113° Southeast  Level Estimated
12:24PM 38.6879 -75.3584 113° Southeast  Level Estimated
12:25PM 38.6879 -75.3584 113° Southeast  Level Estimated